Time;durP1;ratioP1;P1;durP2;ratioP2;P2;SDS_P1;SDS_P2;PMS_P1;PMS_P2;Temp;Humidity;BMP_temperature;BMP_pressure;BME280_temperature;BME280_humidity;BME280_pressure;Samples;Min_cycle;Max_cycle;Signal;HPM_P1;HPM_P2
2022/06/21 00:00:36;;;;;;;35.53;4.82;;;;;;;11.27;100.00;97954.91;5006384;28;20607;-58
2022/06/21 00:03:06;;;;;;;36.88;4.78;;;;;;;11.13;100.00;97952.06;5005975;28;20507;-57
2022/06/21 00:05:34;;;;;;;32.42;4.63;;;;;;;11.11;100.00;97956.50;5002549;28;20037;-57
2022/06/21 00:08:13;;;;;;;37.70;4.85;;;;;;;11.09;100.00;97955.72;5004721;28;20100;-57
2022/06/21 00:10:39;;;;;;;35.15;4.57;;;;;;;11.03;100.00;97955.97;5002785;28;20042;-58
2022/06/21 00:13:13;;;;;;;37.95;5.00;;;;;;;10.92;100.00;97959.91;5005885;28;20088;-57
2022/06/21 00:15:39;;;;;;;33.92;4.85;;;;;;;11.16;100.00;97959.78;5004167;28;20060;-57
2022/06/21 00:18:05;;;;;;;37.33;5.20;;;;;;;10.91;100.00;97959.97;5005589;28;20063;-58
2022/06/21 00:20:30;;;;;;;37.42;4.95;;;;;;;10.95;100.00;97951.09;5001458;28;20034;-57
2022/06/21 00:22:55;;;;;;;37.90;5.18;;;;;;;11.10;100.00;97958.28;5003657;28;20204;-56
2022/06/21 00:25:25;;;;;;;37.60;4.90;;;;;;;11.20;100.00;97956.09;5004889;28;20350;-57
2022/06/21 00:27:52;;;;;;;35.92;5.13;;;;;;;10.92;100.00;97943.41;5005922;28;20112;-58
2022/06/21 00:30:18;;;;;;;33.53;4.85;;;;;;;10.78;100.00;97952.66;5004430;28;20017;-58
2022/06/21 00:32:45;;;;;;;37.03;4.93;;;;;;;10.87;100.00;97945.38;5004922;28;20026;-57
2022/06/21 00:35:16;;;;;;;41.67;5.40;;;;;;;10.91;100.00;97946.94;5006551;28;20521;-57
2022/06/21 00:37:41;;;;;;;30.50;4.32;;;;;;;11.08;100.00;97952.28;5006492;28;20077;-57
2022/06/21 00:40:32;;;;;;;51.22;6.10;;;;;;;11.08;100.00;97951.41;5003919;28;20030;-56
2022/06/21 00:43:06;;;;;;;35.80;4.75;;;;;;;11.04;100.00;97955.06;5005739;28;20076;-57
2022/06/21 00:45:35;;;;;;;31.70;4.50;;;;;;;11.00;100.00;97951.75;5003684;28;20916;-57
2022/06/21 00:48:10;;;;;;;37.53;4.90;;;;;;;10.99;100.00;97950.91;5005070;28;20026;-56
2022/06/21 00:50:42;;;;;;;35.42;4.97;;;;;;;10.83;100.00;97965.53;5003344;28;20151;-57
2022/06/21 00:53:13;;;;;;;29.30;4.65;;;;;;;10.77;100.00;97965.78;5006235;28;20034;-57
2022/06/21 00:55:41;;;;;;;38.53;5.22;;;;;;;10.74;100.00;97968.53;5006108;28;20096;-57
2022/06/21 00:58:11;;;;;;;34.70;4.90;;;;;;;10.68;100.00;97976.59;5007585;28;20084;-57
2022/06/21 01:00:54;;;;;;;36.25;4.97;;;;;;;10.56;100.00;97970.97;5007316;28;20875;-57
2022/06/21 01:03:26;;;;;;;39.85;5.40;;;;;;;10.51;100.00;97962.53;5007235;28;20029;-57
2022/06/21 01:05:55;;;;;;;33.53;4.70;;;;;;;10.60;100.00;97964.75;5009994;28;20037;-57
2022/06/21 01:08:25;;;;;;;36.75;5.10;;;;;;;10.33;100.00;97971.06;5007129;28;20025;-57
2022/06/21 01:10:57;;;;;;;41.90;5.32;;;;;;;10.30;100.00;97968.56;5006569;28;20091;-57
2022/06/21 01:13:27;;;;;;;31.92;4.80;;;;;;;10.07;100.00;97965.09;5008791;28;20034;-57
2022/06/21 01:15:55;;;;;;;36.47;5.20;;;;;;;9.97;100.00;97963.78;5008760;28;20029;-57
2022/06/21 01:18:22;;;;;;;35.00;4.75;;;;;;;10.10;100.00;97969.38;5009418;28;20132;-57
2022/06/21 01:20:51;;;;;;;27.80;4.40;;;;;;;10.10;100.00;97961.53;4990039;28;20037;-57
2022/06/21 01:23:54;;;;;;;33.85;4.80;;;;;;;10.09;100.00;97965.91;5007895;28;20735;-56
2022/06/21 01:26:44;;;;;;;27.90;4.32;;;;;;;10.13;100.00;97964.88;5006973;28;20040;-57
2022/06/21 01:29:15;;;;;;;31.73;4.60;;;;;;;10.16;100.00;97975.19;5008336;28;20119;-57
2022/06/21 01:31:41;;;;;;;43.42;5.57;;;;;;;10.17;100.00;97966.44;5009180;28;20672;-57
2022/06/21 01:34:15;;;;;;;31.25;4.60;;;;;;;10.16;100.00;97969.97;5008409;28;20033;-58
2022/06/21 01:36:41;;;;;;;34.40;4.90;;;;;;;10.18;100.00;97965.56;5006535;28;20122;-57
2022/06/21 01:39:13;;;;;;;33.08;5.28;;;;;;;10.31;100.00;97958.13;5006507;28;21091;-57
2022/06/21 01:41:51;;;;;;;32.67;4.60;;;;;;;10.30;100.00;97966.81;5006902;28;20045;-59
2022/06/21 01:44:25;;;;;;;36.35;4.95;;;;;;;10.35;100.00;97964.06;5007676;28;20569;-57
2022/06/21 01:46:51;;;;;;;38.58;5.00;;;;;;;10.08;100.00;97972.03;5007408;28;20211;-57
2022/06/21 01:49:21;;;;;;;34.22;4.72;;;;;;;10.34;100.00;97967.56;5007067;28;20029;-56
2022/06/21 01:52:01;;;;;;;30.42;4.53;;;;;;;10.26;100.00;97957.41;5002942;28;20026;-59
2022/06/21 01:54:33;;;;;;;31.85;4.80;;;;;;;10.41;100.00;97954.22;5009545;28;20026;-57
2022/06/21 01:56:59;;;;;;;37.20;4.95;;;;;;;10.00;100.00;97955.84;5006811;28;20029;-56
2022/06/21 01:59:30;;;;;;;30.73;4.35;;;;;;;9.83;100.00;97972.13;5009166;28;20989;-57
2022/06/21 02:02:02;;;;;;;36.60;5.03;;;;;;;9.62;100.00;97965.97;5005928;28;20041;-57
2022/06/21 02:04:32;;;;;;;32.35;4.88;;;;;;;9.75;100.00;97964.59;5007959;28;20140;-57
2022/06/21 02:07:05;;;;;;;40.15;5.57;;;;;;;9.75;100.00;97967.22;5006223;28;20133;-57
2022/06/21 02:09:37;;;;;;;33.78;4.97;;;;;;;9.71;100.00;97963.03;5008612;28;20625;-56
2022/06/21 02:12:09;;;;;;;39.50;5.30;;;;;;;9.82;100.00;97957.41;5001608;28;20045;-57
2022/06/21 02:14:39;;;;;;;37.55;5.13;;;;;;;9.74;100.00;97968.13;5008728;28;20034;-57
2022/06/21 02:17:26;;;;;;;38.53;4.95;;;;;;;9.52;100.00;97962.88;5007848;28;20629;-56
2022/06/21 02:19:56;;;;;;;41.60;5.88;;;;;;;9.61;100.00;97964.28;5009110;28;20049;-57
2022/06/21 02:22:28;;;;;;;33.05;4.97;;;;;;;9.69;100.00;97959.66;5005172;28;20038;-57
2022/06/21 02:24:54;;;;;;;;;;;;;;;9.87;100.00;97957.22;5009752;28;20387;-57
2022/06/21 02:27:23;;;;;;;58.25;6.90;;;;;;;9.83;100.00;97952.16;5005452;28;19967;-56
2022/06/21 02:29:54;;;;;;;38.45;5.57;;;;;;;9.80;100.00;97944.44;5005968;28;20017;-57
2022/06/21 02:32:28;;;;;;;51.37;6.60;;;;;;;9.92;100.00;97942.28;5006127;28;20034;-57
2022/06/21 02:35:05;;;;;;;45.83;5.97;;;;;;;10.16;100.00;97943.03;5005699;28;20029;-57
2022/06/21 02:37:31;;;;;;;42.22;5.57;;;;;;;10.35;100.00;97938.00;5004582;28;20037;-58
2022/06/21 02:40:00;;;;;;;45.30;5.85;;;;;;;10.16;100.00;97928.28;5005645;28;20523;-57
2022/06/21 02:42:32;;;;;;;43.20;5.53;;;;;;;9.88;100.00;97938.09;5006313;28;20034;-56
2022/06/21 02:45:18;;;;;;;35.08;5.28;;;;;;;9.91;100.00;97932.78;5004093;28;20029;-57
2022/06/21 02:47:45;;;;;;;43.63;5.68;;;;;;;9.81;100.00;97935.75;5006420;28;20050;-58
2022/06/21 02:50:32;;;;;;;54.47;7.00;;;;;;;9.99;100.00;97930.69;5004259;28;20103;-57
2022/06/21 02:53:00;;;;;;;26.77;4.55;;;;;;;9.75;100.00;97938.56;5006407;28;20029;-57
2022/06/21 02:55:47;;;;;;;42.20;5.25;;;;;;;9.78;100.00;97932.41;5004980;28;20037;-57
2022/06/21 02:58:13;;;;;;;31.95;5.13;;;;;;;9.68;100.00;97931.03;5007294;28;20090;-58
2022/06/21 03:00:39;;;;;;;34.15;5.32;;;;;;;9.71;100.00;97929.19;5005687;28;20095;-58
2022/06/21 03:03:07;;;;;;;37.47;5.30;;;;;;;9.91;100.00;97937.97;5005645;28;20171;-57
2022/06/21 03:05:34;;;;;;;34.83;5.00;;;;;;;9.92;100.00;97931.84;5005255;28;20037;-57
2022/06/21 03:08:03;;;;;;;31.45;4.78;;;;;;;10.16;100.00;97940.44;5006695;28;20030;-56
2022/06/21 03:10:35;;;;;;;37.47;5.47;;;;;;;9.97;100.00;97940.34;5003777;28;20153;-57
2022/06/21 03:13:15;;;;;;;42.65;6.10;;;;;;;10.04;100.00;97939.19;5006136;28;20079;-57
2022/06/21 03:15:44;;;;;;;41.42;5.80;;;;;;;10.21;100.00;97926.31;5005547;28;20041;-58
2022/06/21 03:18:14;;;;;;;28.75;4.68;;;;;;;9.90;100.00;97933.66;5006494;28;20488;-57
2022/06/21 03:20:41;;;;;;;35.00;5.05;;;;;;;9.65;100.00;97927.66;5004519;28;20038;-56
2022/06/21 03:23:06;;;;;;;32.60;5.05;;;;;;;9.57;100.00;97928.84;5006811;28;20891;-59
2022/06/21 03:25:57;;;;;;;33.83;4.80;;;;;;;9.62;100.00;97921.72;5005470;28;20041;-58
2022/06/21 03:28:33;;;;;;;37.15;5.28;;;;;;;9.56;100.00;97916.75;5004576;28;20045;-56
2022/06/21 03:31:09;;;;;;;39.53;5.65;;;;;;;9.47;100.00;97917.94;5004302;28;20069;-59
2022/06/21 03:33:36;;;;;;;26.70;4.32;;;;;;;9.76;100.00;97914.22;5005847;28;20044;-57
2022/06/21 03:36:07;;;;;;;33.20;5.00;;;;;;;9.90;100.00;97915.44;5003850;28;20038;-57
2022/06/21 03:38:33;;;;;;;40.90;5.20;;;;;;;10.51;100.00;97919.94;5003585;28;20037;-57
2022/06/21 03:44:01;;;;;;;38.97;5.80;;;;;;;10.26;100.00;97926.13;5005906;28;20036;-57
2022/06/21 03:46:45;;;;;;;35.83;5.35;;;;;;;10.45;100.00;97928.84;5004745;28;20038;-58
2022/06/21 03:49:25;;;;;;;29.83;5.10;;;;;;;10.51;100.00;97935.56;5004294;28;20683;-57
2022/06/21 03:51:52;;;;;;;27.30;4.65;;;;;;;10.26;100.00;97928.75;5004797;28;20046;-56
2022/06/21 03:54:41;;;;;;;35.28;5.35;;;;;;;10.09;100.00;97926.81;5005579;28;20127;-58
2022/06/21 03:57:17;;;;;;;34.17;5.15;;;;;;;10.17;100.00;97932.56;5007118;28;20104;-58
2022/06/21 03:59:50;;;;;;;32.05;5.00;;;;;;;10.50;100.00;97942.56;5004757;28;20759;-57
2022/06/21 04:02:19;;;;;;;;;;;;;;;10.45;100.00;97934.06;5003901;28;20045;-57
2022/06/21 04:05:03;;;;;;;33.45;5.18;;;;;;;10.37;100.00;97930.94;5003975;28;19953;-57
2022/06/21 04:07:52;;;;;;;33.38;4.78;;;;;;;10.65;100.00;97941.06;5004559;28;20048;-57
2022/06/21 04:10:33;;;;;;;39.28;5.72;;;;;;;10.96;100.00;97932.75;5003660;28;20080;-59
2022/06/21 04:13:11;;;;;;;28.92;5.05;;;;;;;11.03;100.00;97941.19;5006262;28;20041;-59
2022/06/21 04:15:59;;;;;;;32.58;5.03;;;;;;;11.53;100.00;97939.84;5006445;28;20041;-58
2022/06/21 04:18:37;;;;;;;33.85;5.47;;;;;;;11.72;100.00;97935.44;5006300;28;20033;-59
2022/06/21 04:21:09;;;;;;;26.98;4.72;;;;;;;12.56;100.00;97937.56;5004055;28;20768;-57
2022/06/21 04:23:53;;;;;;;28.35;4.65;;;;;;;12.72;100.00;97937.66;5006039;28;20159;-57
2022/06/21 04:26:21;;;;;;;28.65;4.75;;;;;;;13.10;100.00;97932.19;5006251;28;20137;-57
2022/06/21 04:28:55;;;;;;;29.52;4.85;;;;;;;12.80;100.00;97935.47;5006346;28;20029;-58
2022/06/21 04:31:29;;;;;;;25.85;4.75;;;;;;;12.88;100.00;97933.31;5003175;28;20691;-57
2022/06/21 04:34:09;;;;;;;29.77;4.93;;;;;;;13.38;100.00;97938.63;5009112;28;20034;-57
2022/06/21 04:36:40;;;;;;;29.52;4.95;;;;;;;13.17;100.00;97930.94;5008746;28;20125;-57
2022/06/21 04:39:15;;;;;;;27.65;4.80;;;;;;;13.05;100.00;97934.19;5008766;28;20061;-60
2022/06/21 04:41:52;;;;;;;32.20;5.20;;;;;;;13.63;100.00;97930.28;5006913;28;20034;-57
2022/06/21 04:44:31;;;;;;;27.35;5.05;;;;;;;13.79;100.00;97925.91;5009518;28;20038;-57
2022/06/21 04:47:12;;;;;;;27.02;4.82;;;;;;;13.63;100.00;97928.50;5008307;28;20049;-57
2022/06/21 04:49:56;;;;;;;29.92;5.07;;;;;;;13.28;100.00;97927.75;5008106;28;20102;-58
2022/06/21 04:52:27;;;;;;;25.20;4.35;;;;;;;13.86;100.00;97923.78;5007332;28;20131;-57
2022/06/21 04:54:53;;;;;;;23.50;4.35;;;;;;;15.21;100.00;97913.28;5008090;28;20022;-57
2022/06/21 04:57:25;;;;;;;26.08;4.45;;;;;;;15.90;100.00;97916.06;5008437;28;20048;-58
2022/06/21 04:59:55;;;;;;;26.88;4.88;;;;;;;17.02;100.00;97904.31;5009992;28;20033;-57
2022/06/21 05:02:29;;;;;;;24.45;4.38;;;;;;;18.10;100.00;97903.72;5007804;28;20103;-55
2022/06/21 05:05:02;;;;;;;23.10;4.57;;;;;;;19.35;84.37;97898.75;5009143;28;20041;-55
2022/06/21 05:07:32;;;;;;;17.75;3.67;;;;;;;22.90;68.06;97905.59;5006572;28;20116;-55
2022/06/21 05:09:58;;;;;;;27.50;5.22;;;;;;;23.08;59.70;97902.19;5007462;28;20025;-56
2022/06/21 05:12:39;;;;;;;18.92;4.15;;;;;;;21.30;62.22;97903.06;5008254;28;20037;-55
2022/06/21 05:15:13;;;;;;;16.73;3.75;;;;;;;21.84;63.42;97901.06;5008333;28;20034;-55
2022/06/21 05:17:41;;;;;;;18.67;4.20;;;;;;;23.75;57.59;97888.78;5008532;28;20017;-55
2022/06/21 05:20:14;;;;;;;22.92;4.65;;;;;;;25.81;51.24;97889.34;5004117;28;20416;-56
2022/06/21 05:22:48;;;;;;;15.18;3.70;;;;;;;24.63;50.74;97881.84;5008004;28;20041;-56
2022/06/21 05:25:30;;;;;;;15.73;3.83;;;;;;;24.18;50.89;97873.91;5008006;28;20765;-57
2022/06/21 05:28:31;;;;;;;16.85;3.80;;;;;;;25.02;46.31;97872.63;5008372;28;20136;-56
2022/06/21 05:31:05;;;;;;;18.02;4.10;;;;;;;26.32;46.03;97865.25;4998239;28;20108;-58
2022/06/21 05:33:39;;;;;;;15.88;3.72;;;;;;;26.12;45.85;97859.41;5008324;28;20032;-59
2022/06/21 05:36:10;;;;;;;17.02;3.80;;;;;;;25.23;48.00;97864.22;5008006;28;20042;-58
2022/06/21 05:38:48;;;;;;;13.00;3.50;;;;;;;28.70;41.57;97856.31;5007472;28;20025;-57
2022/06/21 05:41:30;;;;;;;15.93;3.83;;;;;;;26.27;43.78;97859.56;5009094;28;20037;-58
2022/06/21 05:44:22;;;;;;;12.63;3.35;;;;;;;27.76;40.48;97859.13;5004842;28;20033;-58
2022/06/21 05:46:49;;;;;;;;;;;;;;;26.41;41.37;97858.88;5007803;28;20041;-58
2022/06/21 05:49:24;;;;;;;13.60;3.45;;;;;;;29.24;38.57;97849.91;5006731;28;19920;-58
2022/06/21 05:51:53;;;;;;;10.20;2.97;;;;;;;28.84;38.74;97852.00;5006088;28;20515;-57
2022/06/21 05:54:22;;;;;;;10.82;3.28;;;;;;;25.42;44.21;97848.97;5007157;28;20051;-56
2022/06/21 05:56:49;;;;;;;11.55;3.35;;;;;;;27.50;42.03;97844.19;5007832;28;20654;-56
2022/06/21 05:59:18;;;;;;;16.88;4.10;;;;;;;31.56;36.15;97855.03;5004824;28;20022;-57
2022/06/21 06:02:04;;;;;;;13.50;3.42;;;;;;;30.65;35.83;97865.78;5004866;28;20043;-56
2022/06/21 06:04:47;;;;;;;13.23;3.50;;;;;;;29.33;37.86;97872.97;5005111;28;20025;-58
2022/06/21 06:07:19;;;;;;;11.57;3.08;;;;;;;29.98;37.80;97860.59;5005065;28;20075;-57
2022/06/21 06:09:49;;;;;;;10.25;3.10;;;;;;;30.64;37.17;97869.50;5005232;28;20029;-57
2022/06/21 06:12:25;;;;;;;11.00;3.30;;;;;;;28.76;38.90;97866.31;5005618;28;20111;-57
2022/06/21 06:14:59;;;;;;;12.13;3.13;;;;;;;27.95;39.39;97865.09;5007302;28;20025;-57
2022/06/21 06:17:43;;;;;;;13.95;3.15;;;;;;;27.45;39.34;97884.03;5004499;28;20038;-57
2022/06/21 06:20:22;;;;;;;13.52;3.75;;;;;;;25.95;42.17;97886.09;5012937;28;20053;-56
2022/06/21 06:23:00;;;;;;;11.55;3.45;;;;;;;27.80;38.77;97865.78;5005579;28;20115;-56
2022/06/21 06:25:37;;;;;;;9.27;2.75;;;;;;;30.52;35.12;97871.91;5006252;28;20430;-56
2022/06/21 06:28:21;;;;;;;9.30;2.75;;;;;;;31.36;35.03;97873.78;5006697;28;20033;-56
2022/06/21 06:31:22;;;;;;;10.80;3.15;;;;;;;28.92;38.30;97880.63;5007212;28;20100;-56
2022/06/21 06:33:59;;;;;;;10.93;3.15;;;;;;;27.22;39.89;97883.06;4995410;28;21110;-58
2022/06/21 06:36:31;;;;;;;12.15;3.20;;;;;;;27.96;38.58;97877.47;5006425;28;20108;-57
2022/06/21 06:38:58;;;;;;;11.10;3.13;;;;;;;31.81;33.30;97882.28;5006981;28;20502;-57
2022/06/21 06:41:30;;;;;;;12.57;3.22;;;;;;;31.90;33.01;97885.66;5019904;28;20579;-57
2022/06/21 06:44:15;;;;;;;12.43;3.00;;;;;;;31.54;34.33;97884.06;5005035;28;20041;-57
2022/06/21 06:46:49;;;;;;;11.20;3.08;;;;;;;33.07;32.35;97888.94;5005979;28;20046;-57
2022/06/21 06:49:19;;;;;;;8.50;2.70;;;;;;;30.56;34.83;97890.13;5013363;28;20094;-58
2022/06/21 06:51:57;;;;;;;10.32;2.97;;;;;;;32.04;33.85;97890.09;5005492;28;20049;-57
2022/06/21 06:54:39;;;;;;;10.38;3.03;;;;;;;30.50;35.16;97896.31;5005264;28;20117;-57
2022/06/21 06:57:16;;;;;;;9.80;2.83;;;;;;;31.33;33.96;97885.75;5005101;28;20093;-58
2022/06/21 06:59:43;;;;;;;11.82;3.10;;;;;;;33.01;32.59;97887.91;5004371;28;20092;-57
2022/06/21 07:02:21;;;;;;;11.00;3.03;;;;;;;33.18;32.22;97892.91;5004178;28;20137;-57
2022/06/21 07:04:56;;;;;;;10.95;3.00;;;;;;;32.39;33.61;97897.22;5007254;28;20032;-58
2022/06/21 07:07:36;;;;;;;11.20;2.97;;;;;;;31.89;33.25;97906.41;5005366;28;20038;-58
2022/06/21 07:10:09;;;;;;;16.88;4.00;;;;;;;33.37;31.76;97897.44;5005669;28;20033;-59
2022/06/21 07:12:34;;;;;;;16.95;3.17;;;;;;;32.70;31.22;97907.47;5006658;28;20073;-57
2022/06/21 07:15:00;;;;;;;11.90;3.33;;;;;;;32.24;32.63;97902.78;5005864;28;20101;-57
2022/06/21 07:17:37;;;;;;;11.75;3.38;;;;;;;29.73;36.54;97902.22;5006413;28;20034;-57
2022/06/21 07:20:05;;;;;;;18.73;4.38;;;;;;;31.36;33.67;97889.94;5006196;28;20799;-59
2022/06/21 07:22:34;;;;;;;10.93;3.40;;;;;;;31.93;33.02;97890.66;5003805;28;20045;-57
2022/06/21 07:25:51;;;;;;;13.95;3.50;;;;;;;32.00;33.71;97885.25;5007810;28;20440;-58
2022/06/21 07:28:28;;;;;;;14.70;3.25;;;;;;;31.23;34.36;97887.16;4977206;28;20659;-58
2022/06/21 07:30:58;;;;;;;13.35;3.63;;;;;;;30.71;34.36;97889.22;5003703;28;20041;-57
2022/06/21 07:33:32;;;;;;;11.48;3.10;;;;;;;30.40;32.72;97887.72;5004148;28;20486;-58
2022/06/21 07:36:04;;;;;;;10.43;2.72;;;;;;;34.06;29.26;97876.19;5005825;28;20041;-57
2022/06/21 07:38:36;;;;;;;11.98;3.42;;;;;;;32.36;30.49;97868.75;5005750;28;20026;-58
2022/06/21 07:41:09;;;;;;;11.98;3.20;;;;;;;31.09;33.32;97862.00;5002858;28;20756;-57
2022/06/21 07:43:39;;;;;;;10.80;3.20;;;;;;;32.47;33.02;97873.53;5006139;28;20059;-57
2022/06/21 07:46:07;;;;;;;10.85;2.83;;;;;;;32.79;30.61;97884.63;5006250;28;20033;-58
2022/06/21 07:48:43;;;;;;;14.15;3.55;;;;;;;33.97;29.08;97877.50;5006011;28;20029;-58
2022/06/21 07:51:20;;;;;;;10.65;3.10;;;;;;;34.02;28.57;97860.59;5004983;28;20050;-57
2022/06/21 07:53:53;;;;;;;11.20;3.25;;;;;;;33.96;28.65;97873.94;5005382;28;20045;-58
2022/06/21 07:56:23;;;;;;;11.68;3.13;;;;;;;34.03;29.79;97864.97;5006732;28;20041;-57
2022/06/21 07:58:52;;;;;;;12.20;3.47;;;;;;;35.87;26.66;97859.97;5004545;28;20054;-57
2022/06/21 08:07:06;;;;;;;9.93;3.22;;;;;;;34.81;27.21;97852.97;5004634;28;20044;-58
2022/06/21 08:09:47;;;;;;;12.23;3.33;;;;;;;32.69;29.38;97862.59;5007847;28;20109;-59
2022/06/21 08:12:14;;;;;;;10.85;3.20;;;;;;;31.93;30.96;97863.66;5009606;28;20088;-58
2022/06/21 08:14:39;;;;;;;11.85;3.38;;;;;;;31.66;30.74;97876.22;5008706;28;20278;-58
2022/06/21 08:17:21;;;;;;;11.63;3.10;;;;;;;30.79;32.07;97883.72;5010465;28;20046;-59
2022/06/21 08:19:46;;;;;;;15.38;3.47;;;;;;;33.70;27.95;97879.47;5009553;28;20139;-58
2022/06/21 08:22:22;;;;;;;14.90;3.27;;;;;;;33.12;28.69;97878.38;5006851;28;20045;-58
2022/06/21 08:24:52;;;;;;;13.25;3.22;;;;;;;32.35;28.83;97875.22;5023851;28;20646;-58
2022/06/21 08:27:27;;;;;;;12.95;3.35;;;;;;;31.39;29.85;97867.13;5007384;28;20069;-58
2022/06/21 08:29:59;;;;;;;12.35;3.33;;;;;;;32.47;27.67;97870.84;5007781;28;20446;-58
2022/06/21 08:32:37;;;;;;;11.60;3.05;;;;;;;34.95;26.92;97865.38;5007725;28;20117;-58
2022/06/21 08:35:11;;;;;;;12.48;2.85;;;;;;;34.52;26.39;97866.09;5007321;28;20279;-56
2022/06/21 08:37:49;;;;;;;12.77;3.40;;;;;;;30.41;32.01;97859.78;5008003;28;20022;-58
2022/06/21 08:40:31;;;;;;;12.93;3.70;;;;;;;30.89;30.87;97859.97;4999825;28;20026;-57
2022/06/21 08:43:14;;;;;;;;;;;;;;;33.16;28.75;97852.59;5009010;28;20508;-58
2022/06/21 08:46:04;;;;;;;12.32;3.15;;;;;;;32.62;30.56;97856.34;5008692;28;19917;-57
2022/06/21 08:48:51;;;;;;;11.98;3.25;;;;;;;33.03;29.62;97875.03;5008515;28;20389;-57
2022/06/21 08:51:35;;;;;;;11.30;3.25;;;;;;;31.53;30.28;97860.00;5006401;28;20049;-58
2022/06/21 08:54:28;;;;;;;13.35;3.20;;;;;;;30.69;31.37;97867.06;5008415;28;20552;-57
2022/06/21 08:57:03;;;;;;;15.18;3.08;;;;;;;33.15;28.43;97867.13;5007495;28;20534;-58
2022/06/21 08:59:40;;;;;;;12.20;3.25;;;;;;;34.25;26.82;97866.31;5009059;28;20044;-57
2022/06/21 09:02:37;;;;;;;10.88;3.08;;;;;;;33.11;27.95;97860.47;5007222;28;20045;-60
2022/06/21 09:05:25;;;;;;;13.82;3.38;;;;;;;33.67;26.98;97852.84;5007003;28;20041;-56
2022/06/21 09:07:57;;;;;;;10.90;2.97;;;;;;;29.62;30.66;97844.41;5007531;28;20022;-58
2022/06/21 09:10:32;;;;;;;;;;;;;;;29.89;30.18;97844.78;5008354;28;20112;-57
2022/06/21 09:13:15;;;;;;;14.82;3.28;;;;;;;31.32;29.01;97845.53;5008331;28;19913;-58
2022/06/21 09:15:46;;;;;;;16.10;3.53;;;;;;;30.09;29.36;97845.81;5008851;28;20037;-57
2022/06/21 09:18:39;;;;;;;16.95;3.50;;;;;;;30.98;28.26;97835.63;5006701;28;20794;-58
2022/06/21 09:21:26;;;;;;;14.60;3.30;;;;;;;32.71;25.85;97817.28;5007718;28;20050;-58
2022/06/21 09:24:05;;;;;;;16.77;3.58;;;;;;;32.64;25.55;97811.91;5007331;28;20033;-57
2022/06/21 09:26:39;;;;;;;15.70;3.30;;;;;;;30.70;28.45;97820.28;5007049;28;20095;-58
2022/06/21 09:29:26;;;;;;;18.15;3.72;;;;;;;29.40;29.44;97825.53;5007561;28;20030;-58
2022/06/21 09:32:13;;;;;;;15.80;3.30;;;;;;;29.97;29.32;97815.88;5006936;28;20046;-57
2022/06/21 09:34:47;;;;;;;16.33;3.38;;;;;;;33.27;26.84;97798.91;5007645;28;20026;-57
2022/06/21 09:37:21;;;;;;;14.57;3.22;;;;;;;32.58;28.75;97784.91;5006833;28;20128;-58
2022/06/21 09:40:02;;;;;;;18.05;3.60;;;;;;;30.64;29.75;97795.00;5009432;28;20037;-57
2022/06/21 09:42:34;;;;;;;16.33;3.50;;;;;;;33.11;26.89;97795.63;5007367;28;20100;-58
2022/06/21 09:45:09;;;;;;;16.83;3.78;;;;;;;31.63;28.26;97798.44;5007283;28;20103;-58
2022/06/21 09:47:44;;;;;;;16.67;3.60;;;;;;;30.74;29.31;97791.94;5009510;28;20034;-57
2022/06/21 09:50:28;;;;;;;23.02;4.55;;;;;;;31.44;28.43;97764.97;5006781;28;20835;-57
2022/06/21 09:53:12;;;;;;;16.10;3.40;;;;;;;30.34;29.56;97767.41;5006453;28;20815;-58
2022/06/21 09:55:48;;;;;;;15.75;3.25;;;;;;;31.39;28.39;97775.53;5008106;28;20044;-58
2022/06/21 09:58:22;;;;;;;15.80;3.08;;;;;;;31.89;27.21;97787.72;5007875;28;20564;-59
2022/06/21 10:00:58;;;;;;;18.40;3.60;;;;;;;31.46;28.63;97779.91;5004592;28;20108;-58
2022/06/21 10:03:24;;;;;;;14.88;3.22;;;;;;;31.68;28.11;97771.72;5008292;28;20033;-58
2022/06/21 10:06:18;;;;;;;18.75;3.80;;;;;;;31.82;28.19;97775.28;5006038;28;20036;-58
2022/06/21 10:08:49;;;;;;;20.77;3.83;;;;;;;33.55;25.86;97766.97;5005740;28;20562;-58
2022/06/21 10:11:30;;;;;;;12.82;2.83;;;;;;;31.46;28.84;97766.41;5006314;28;20095;-58
2022/06/21 10:14:32;;;;;;;18.58;3.85;;;;;;;32.04;25.46;97757.91;5006762;28;20266;-58
2022/06/21 10:17:06;;;;;;;17.10;3.45;;;;;;;30.79;26.04;97761.72;5008443;28;20087;-58
2022/06/21 10:19:49;;;;;;;17.35;3.38;;;;;;;29.08;27.94;97756.09;5006913;28;20053;-58
2022/06/21 10:22:53;;;;;;;15.23;3.08;;;;;;;29.17;27.66;97755.84;5006224;28;20052;-58
2022/06/21 10:25:32;;;;;;;11.98;2.67;;;;;;;31.32;26.11;97749.38;4985962;28;20046;-58
2022/06/21 10:28:05;;;;;;;20.55;3.90;;;;;;;30.19;26.84;97754.03;5007364;28;20037;-58
2022/06/21 10:30:54;;;;;;;16.63;3.30;;;;;;;32.83;24.93;97756.22;5004989;28;20683;-58
2022/06/21 10:33:38;;;;;;;17.30;3.10;;;;;;;32.86;24.44;97749.53;5007798;28;20141;-58
2022/06/21 10:36:06;;;;;;;22.15;3.45;;;;;;;31.87;25.60;97740.41;5009060;28;20037;-58
2022/06/21 10:38:44;;;;;;;16.88;3.60;;;;;;;30.26;26.98;97727.19;5005125;28;20780;-58
2022/06/21 10:41:31;;;;;;;17.83;3.53;;;;;;;31.19;26.43;97716.16;5005377;28;20033;-58
2022/06/21 10:44:14;;;;;;;17.50;3.08;;;;;;;31.55;24.83;97733.94;5007037;28;20058;-58
2022/06/21 10:46:49;;;;;;;16.38;2.90;;;;;;;31.56;25.66;97728.34;5006341;28;20057;-58
2022/06/21 10:49:53;;;;;;;15.18;3.20;;;;;;;32.38;24.15;97729.03;5005727;28;20124;-59
2022/06/21 10:52:18;;;;;;;14.98;3.22;;;;;;;32.68;24.58;97715.13;4971143;28;20585;-58
2022/06/21 10:54:53;;;;;;;14.68;3.20;;;;;;;32.66;24.39;97717.19;5007921;28;20575;-58
2022/06/21 10:57:40;;;;;;;18.55;3.47;;;;;;;31.85;25.67;97715.53;5007045;28;20136;-58
2022/06/21 11:03:11;;;;;;;15.27;2.95;;;;;;;29.60;27.69;97706.72;5007763;28;20072;-58
2022/06/21 11:05:42;;;;;;;15.43;3.45;;;;;;;29.40;28.04;97707.34;5006574;28;20033;-60
2022/06/21 11:08:27;;;;;;;15.30;3.15;;;;;;;31.45;26.28;97691.16;5005568;28;20126;-57
2022/06/21 11:11:05;;;;;;;14.27;2.92;;;;;;;29.94;27.65;97692.59;5004889;28;20038;-60
2022/06/21 11:13:40;;;;;;;16.92;3.30;;;;;;;30.69;27.84;97692.09;5005693;28;20022;-57
2022/06/21 11:16:10;;;;;;;45.03;3.90;;;;;;;31.92;26.32;97688.56;5006948;28;20148;-58
2022/06/21 11:18:44;;;;;;;23.20;4.22;;;;;;;31.51;26.21;97672.34;5006703;28;20064;-58
2022/06/21 11:21:43;;;;;;;15.02;3.13;;;;;;;29.89;28.01;97678.91;5006333;28;20042;-58
2022/06/21 11:24:14;;;;;;;17.77;3.63;;;;;;;29.50;27.75;97676.63;5005258;28;20053;-58
2022/06/21 11:27:06;;;;;;;17.55;3.33;;;;;;;31.59;25.68;97674.00;5013831;28;20602;-59
2022/06/21 11:29:44;;;;;;;16.80;3.53;;;;;;;29.59;27.16;97683.53;5006617;28;20060;-58
2022/06/21 11:32:21;;;;;;;17.85;3.42;;;;;;;30.87;27.07;97680.81;5005487;28;20030;-58
2022/06/21 11:34:58;;;;;;;17.73;3.60;;;;;;;30.05;27.81;97677.81;5003608;28;20061;-58
2022/06/21 11:37:46;;;;;;;21.17;3.78;;;;;;;30.20;28.54;97677.69;5005829;28;20042;-59
2022/06/21 11:40:30;;;;;;;21.27;4.10;;;;;;;28.08;30.61;97677.66;5005015;28;20561;-58
2022/06/21 11:42:58;;;;;;;19.33;3.53;;;;;;;29.31;28.90;97684.31;5004797;28;20058;-57
2022/06/21 11:45:35;;;;;;;17.90;3.42;;;;;;;31.07;27.89;97675.53;5004435;28;20036;-57
2022/06/21 11:48:28;;;;;;;19.20;3.42;;;;;;;30.96;28.54;97678.81;5005256;28;20037;-58
2022/06/21 11:51:11;;;;;;;23.02;4.13;;;;;;;28.91;30.03;97674.94;5003345;28;20076;-58
2022/06/21 11:53:44;;;;;;;17.25;3.40;;;;;;;29.80;30.23;97666.63;5005440;28;20026;-58
2022/06/21 11:56:13;;;;;;;20.45;3.83;;;;;;;29.31;30.25;97668.19;5005981;28;20206;-57
2022/06/21 11:58:52;;;;;;;21.35;3.83;;;;;;;30.27;28.15;97665.13;5006000;28;20968;-58
2022/06/21 12:01:17;;;;;;;20.27;3.88;;;;;;;28.80;29.81;97660.97;5003894;28;20041;-58
2022/06/21 12:03:59;;;;;;;21.63;3.87;;;;;;;28.94;29.56;97664.66;5002316;28;20060;-58
2022/06/21 12:06:50;;;;;;;16.58;3.45;;;;;;;28.74;30.36;97663.56;5004954;28;20269;-58
2022/06/21 12:09:46;;;;;;;19.42;3.65;;;;;;;29.32;29.63;97650.25;4997136;28;20033;-58
2022/06/21 12:12:29;;;;;;;21.60;3.90;;;;;;;28.69;30.45;97655.25;5004480;28;20045;-58
2022/06/21 12:15:13;;;;;;;21.25;3.80;;;;;;;29.24;31.02;97648.47;5005126;28;20100;-57